Altenburg, MO

10:37 PM CST on December 18, 2014 (GMT -0600)
Dept. of Social Mediarology | Change Station
CLOSE
Current Station
Personal Weather Station
Location: Jackson, MO
Elevation: 522 ft
Nearby Weather Stations

Elev 522 ft 37.38 °N, 89.64 °W | Updated 13 minutes ago

Overcast
Overcast
34.2 °F
Feels Like 34 °F
N
2.2
Wind Variable Wind from WNW

Today
High -- | Low -- °F
--% Chance of Precip.
Yesterday
High -- | Low -- °F
Precip. -- in
7:07 AM 4:42 PM
Waning Crescent, 10% visible
Pressure 30.28 in
Visibility 8.0 miles
Clouds Mostly Cloudy 1100 ft
Overcast 2000 ft
Windchill 34 °F
Dew Point 32 °F
Humidity 93%
Rainfall 0.15 in
Snow Depth Not available.
UV 0 out of 12
Pollen .50 out of 12
Air Quality Not available.
Flu Activity Not available.
SPECI KCGI 190418Z AUTO 05004KT 8SM BKN011 OVC020 02/01 A3028 RMK AO2 T00170006 TSNO

More Conditions Fewer Conditions

Pressure 30.28 in
Visibility 8.0 miles
Clouds Mostly Cloudy 1100 ft
Overcast 2000 ft
Windchill 34 °F
Dew Point 32 °F
Humidity 93%
Rainfall 0.15 in
Snow Depth Not available.
UV 0 out of 12
Pollen .50 out of 12
Air Quality Not available.
Flu Activity Not available.
SPECI KCGI 190418Z AUTO 05004KT 8SM BKN011 OVC020 02/01 A3028 RMK AO2 T00170006 TSNO

More Conditions Fewer Conditions

10-Day Weather Forecast

Almanac

Astronomy

Dec. 18, 2014 Rise Set
Actual Time
Civil Twilight
Nautical Twilight
Astronomical Twilight
Moon
Length of Visible Light
Length of Day
Tomorrow will be .
, % of the Moon is Illuminated

Today's Extremes

State Highs State Lows

Community

WunderPhotos

Upload Photos

1,778,963 photos uploaded!

WunderBlogs® & News

Nearby

Air Quality

  Air Quality AQ Index Pollutant
Not available.

Snow Depth

Station Depth Elevation

Earthquake Activity

City Distance Mag. Time & Date
Minimum magnitude displayed is 2.5.

Coastal Water Temperatures

Place Temperature

Nearby Weather Stations